createdAt,value
2022-11-28T00:01:21.585Z,-0.31
2022-11-28T00:03:48.957Z,-0.40
2022-11-28T00:06:16.601Z,-0.54
2022-11-28T00:08:44.338Z,-0.48
2022-11-28T00:11:14.049Z,-0.46
2022-11-28T00:13:41.836Z,-0.48
2022-11-28T00:16:13.251Z,-0.45
2022-11-28T00:18:40.248Z,-0.77
2022-11-28T00:21:09.918Z,-0.42
2022-11-28T00:23:36.905Z,-0.40
2022-11-28T00:26:12.725Z,-0.46
2022-11-28T00:28:39.836Z,-0.51
2022-11-28T00:31:11.794Z,-0.52
2022-11-28T00:33:38.707Z,-0.61
2022-11-28T00:36:06.450Z,-0.53
2022-11-28T00:38:33.367Z,-0.79
2022-11-28T00:41:21.202Z,-0.49
2022-11-28T00:43:49.928Z,-0.48
2022-11-28T00:46:18.744Z,-0.46
2022-11-28T00:48:46.434Z,-0.49
2022-11-28T00:51:14.699Z,-0.58
2022-11-28T00:53:43.264Z,-0.56
2022-11-28T00:56:12.732Z,-0.33
2022-11-28T00:58:40.612Z,-0.18
2022-11-28T01:01:13.023Z,-0.06
2022-11-28T01:03:40.232Z,-0.07
2022-11-28T01:06:07.695Z,0.02
2022-11-28T01:08:35.066Z,0.12
2022-11-28T01:11:02.767Z,0.19
2022-11-28T01:13:30.015Z,0.10
2022-11-28T01:15:58.983Z,0.19
2022-11-28T01:18:26.056Z,0.33
2022-11-28T01:20:52.936Z,0.32
2022-11-28T01:23:19.882Z,0.44
2022-11-28T01:25:46.829Z,0.52
2022-11-28T01:28:13.859Z,0.59
2022-11-28T01:30:41.029Z,0.66
2022-11-28T01:33:07.925Z,0.60
2022-11-28T01:35:34.841Z,0.73
2022-11-28T01:38:01.783Z,0.78
2022-11-28T01:40:28.708Z,0.84
2022-11-28T01:42:55.670Z,0.94
2022-11-28T01:45:29.569Z,0.96
2022-11-28T01:48:00.881Z,0.97
2022-11-28T01:50:30.197Z,0.87
2022-11-28T01:53:01.979Z,0.67
2022-11-28T01:55:33.864Z,0.97
2022-11-28T01:58:01.735Z,0.91
2022-11-28T02:00:28.800Z,1.01
2022-11-28T02:03:26.384Z,0.99
2022-11-28T02:05:54.563Z,0.96
2022-11-28T02:08:32.469Z,0.98
2022-11-28T02:11:39.986Z,0.99
2022-11-28T02:14:53.050Z,1.03
2022-11-28T02:17:38.824Z,1.04
2022-11-28T02:20:35.273Z,1.07
2022-11-28T02:23:33.889Z,1.12
2022-11-28T02:26:25.091Z,1.16
2022-11-28T02:29:13.489Z,1.23
2022-11-28T02:32:04.903Z,1.31
2022-11-28T02:34:55.405Z,1.32
2022-11-28T02:37:50.957Z,1.34
2022-11-28T02:40:36.831Z,1.26
2022-11-28T02:43:33.206Z,1.28
2022-11-28T02:46:18.428Z,1.22
2022-11-28T02:48:57.457Z,1.16
2022-11-28T02:51:46.398Z,1.17
2022-11-28T02:54:16.124Z,1.12
2022-11-28T02:56:53.877Z,1.11
2022-11-28T02:59:30.193Z,0.83
2022-11-28T03:01:58.328Z,1.01
2022-11-28T03:04:47.231Z,1.10
2022-11-28T03:07:37.106Z,1.10
2022-11-28T03:10:19.514Z,1.15
2022-11-28T03:12:46.386Z,1.26
2022-11-28T03:15:18.889Z,1.30
2022-11-28T03:18:21.239Z,1.33
2022-11-28T03:20:56.176Z,1.44
2022-11-28T03:23:40.493Z,1.14
2022-11-28T03:26:16.466Z,1.42
2022-11-28T03:28:47.487Z,1.47
2022-11-28T03:31:20.074Z,1.09
2022-11-28T03:33:59.863Z,1.28
2022-11-28T03:36:29.095Z,1.34
2022-11-28T03:39:03.916Z,1.21
2022-11-28T03:41:43.207Z,1.37
2022-11-28T03:44:21.046Z,1.34
2022-11-28T03:46:49.264Z,1.35
2022-11-28T03:49:25.806Z,1.30
2022-11-28T03:51:59.715Z,1.32
2022-11-28T03:54:41.530Z,1.25
2022-11-28T03:57:32.085Z,1.30
2022-11-28T04:00:07.591Z,1.38
2022-11-28T04:02:40.503Z,1.48
2022-11-28T04:05:26.182Z,1.50
2022-11-28T04:07:57.334Z,1.49
2022-11-28T04:10:34.567Z,1.54
2022-11-28T04:13:23.216Z,1.42
2022-11-28T04:16:11.781Z,1.40
2022-11-28T04:18:47.672Z,1.36
2022-11-28T04:21:50.005Z,1.43
2022-11-28T04:24:24.905Z,1.42
2022-11-28T04:27:00.732Z,1.40
2022-11-28T04:29:34.554Z,1.35
2022-11-28T04:32:04.313Z,1.19
2022-11-28T04:34:35.090Z,1.37
2022-11-28T04:37:09.611Z,1.36
2022-11-28T04:39:39.106Z,1.36
2022-11-28T04:42:12.346Z,1.38
2022-11-28T04:44:51.190Z,1.35
2022-11-28T04:47:18.866Z,1.24
2022-11-28T04:49:45.936Z,1.30
2022-11-28T04:52:25.066Z,1.33
2022-11-28T04:54:57.803Z,1.49
2022-11-28T04:57:33.063Z,1.56
2022-11-28T05:00:05.270Z,1.61
2022-11-28T05:02:33.459Z,1.59
2022-11-28T05:05:00.726Z,1.43
2022-11-28T05:07:27.660Z,1.59
2022-11-28T05:09:55.952Z,1.55
2022-11-28T05:12:22.834Z,1.58
2022-11-28T05:14:49.740Z,1.63
2022-11-28T05:17:16.634Z,1.54
2022-11-28T05:19:43.589Z,1.49
2022-11-28T05:22:10.503Z,1.50
2022-11-28T05:24:37.957Z,1.44
2022-11-28T05:27:04.919Z,1.55
2022-11-28T05:29:31.881Z,1.48
2022-11-28T05:31:58.795Z,1.52
2022-11-28T05:34:25.726Z,1.60
2022-11-28T05:36:52.599Z,1.67
2022-11-28T05:39:19.506Z,1.72
2022-11-28T05:41:46.431Z,1.64
2022-11-28T05:44:13.324Z,1.69
2022-11-28T05:46:40.298Z,1.73
2022-11-28T05:49:07.227Z,1.77
2022-11-28T05:51:34.085Z,1.72
2022-11-28T05:54:00.995Z,1.84
2022-11-28T05:56:27.885Z,1.80
2022-11-28T05:58:55.029Z,1.74
2022-11-28T06:01:27.756Z,1.80
2022-11-28T06:04:00.910Z,1.83
2022-11-28T06:06:30.748Z,1.82
2022-11-28T06:08:58.432Z,1.78
2022-11-28T06:11:27.897Z,1.87
2022-11-28T06:13:55.230Z,1.83
2022-11-28T06:16:25.569Z,1.85
2022-11-28T06:18:57.538Z,1.79
2022-11-28T06:21:25.715Z,1.80
2022-11-28T06:23:52.736Z,1.72
2022-11-28T06:26:23.219Z,1.57
2022-11-28T06:28:50.404Z,1.47
2022-11-28T06:31:20.228Z,1.47
2022-11-28T06:33:47.561Z,1.39
2022-11-28T06:36:16.749Z,1.49
2022-11-28T06:38:44.068Z,1.44
2022-11-28T06:41:45.353Z,1.52
2022-11-28T06:44:16.410Z,1.43
2022-11-28T06:46:44.310Z,1.35
2022-11-28T06:49:14.092Z,1.38
2022-11-28T06:51:43.091Z,1.34
2022-11-28T06:54:09.995Z,1.34
2022-11-28T06:56:36.981Z,1.43
2022-11-28T06:59:04.160Z,1.51
2022-11-28T07:01:32.726Z,1.62
2022-11-28T07:03:59.837Z,1.54
2022-11-28T07:06:28.564Z,1.56
2022-11-28T07:08:59.167Z,1.62
2022-11-28T07:11:31.745Z,1.71
2022-11-28T07:14:01.838Z,1.85
2022-11-28T07:16:31.973Z,1.65
2022-11-28T07:18:59.884Z,1.53
2022-11-28T07:21:28.580Z,1.73
2022-11-28T07:23:55.541Z,1.76
2022-11-28T07:26:23.398Z,1.89
2022-11-28T07:28:51.574Z,1.99
2022-11-28T07:31:21.527Z,1.99
2022-11-28T07:33:50.595Z,2.10
2022-11-28T07:36:18.965Z,2.10
2022-11-28T07:38:50.952Z,2.27
2022-11-28T07:41:23.677Z,2.28
2022-11-28T07:43:58.715Z,2.22
2022-11-28T07:46:26.822Z,2.35
2022-11-28T07:48:54.432Z,2.20
2022-11-28T07:51:28.721Z,2.43
2022-11-28T07:53:56.133Z,2.51
2022-11-28T07:56:31.906Z,2.34
2022-11-28T07:59:07.543Z,2.35
2022-11-28T08:01:36.332Z,2.46
2022-11-28T08:04:06.090Z,2.35
2022-11-28T08:06:37.169Z,2.34
2022-11-28T08:09:04.659Z,2.39
2022-11-28T08:11:32.896Z,2.39
2022-11-28T08:14:00.648Z,2.39
2022-11-28T08:16:29.193Z,2.58
2022-11-28T08:18:56.800Z,2.73
2022-11-28T08:21:26.949Z,2.79
2022-11-28T08:23:56.041Z,2.89
2022-11-28T08:26:28.990Z,3.01
2022-11-28T08:28:58.312Z,3.02
2022-11-28T08:31:32.191Z,3.11
2022-11-28T08:34:00.913Z,3.19
2022-11-28T08:36:29.382Z,3.19
2022-11-28T08:39:16.690Z,3.20
2022-11-28T08:41:44.450Z,3.30
2022-11-28T08:44:11.331Z,3.24
2022-11-28T08:46:38.256Z,3.09
2022-11-28T08:49:05.164Z,3.26
2022-11-28T08:51:32.445Z,3.09
2022-11-28T08:54:00.315Z,2.96
2022-11-28T08:56:28.106Z,2.87
2022-11-28T08:58:55.472Z,2.89
2022-11-28T09:01:24.957Z,2.89
2022-11-28T09:03:53.914Z,2.85
2022-11-28T09:06:22.410Z,2.75
2022-11-28T09:08:50.357Z,3.07
2022-11-28T09:11:19.264Z,3.16
2022-11-28T09:13:46.689Z,3.24
2022-11-28T09:16:14.645Z,3.19
2022-11-28T09:18:41.709Z,3.17
2022-11-28T09:21:11.851Z,3.28
2022-11-28T09:23:41.330Z,3.48
2022-11-28T09:26:13.247Z,3.47
2022-11-28T09:28:40.271Z,3.59
2022-11-28T09:31:08.402Z,3.54
2022-11-28T09:33:36.553Z,3.65
2022-11-28T09:36:12.552Z,3.61
2022-11-28T09:38:39.842Z,3.59
2022-11-28T09:41:28.637Z,3.67
2022-11-28T09:44:09.238Z,3.70
2022-11-28T09:46:39.060Z,3.70
2022-11-28T09:49:41.055Z,3.78
2022-11-28T09:52:42.914Z,3.87
2022-11-28T09:55:19.715Z,3.96
2022-11-28T09:57:49.422Z,3.98
2022-11-28T10:00:23.018Z,4.02
2022-11-28T10:03:17.973Z,4.01
2022-11-28T10:06:15.909Z,4.06
2022-11-28T10:08:57.969Z,4.15
2022-11-28T10:11:35.532Z,4.14
2022-11-28T10:14:40.530Z,4.24
2022-11-28T10:17:25.739Z,4.30
2022-11-28T10:20:17.084Z,4.36
2022-11-28T10:22:48.717Z,4.42
2022-11-28T10:25:43.295Z,4.48
2022-11-28T10:28:23.236Z,4.54
2022-11-28T10:31:00.064Z,4.63
2022-11-28T10:33:41.476Z,4.66
2022-11-28T10:36:18.940Z,4.66
2022-11-28T10:38:45.856Z,3.87
2022-11-28T10:41:25.600Z,4.88
2022-11-28T10:44:21.192Z,4.99
2022-11-28T10:46:57.199Z,4.96
2022-11-28T10:49:26.971Z,4.97
2022-11-28T10:52:14.930Z,5.01
2022-11-28T10:55:02.866Z,4.74
2022-11-28T10:58:09.819Z,5.01
2022-11-28T11:00:38.391Z,5.13
2022-11-28T11:03:11.911Z,5.29
2022-11-28T11:05:38.889Z,5.09
2022-11-28T11:08:23.854Z,5.23
2022-11-28T11:11:03.020Z,4.96
2022-11-28T11:13:33.035Z,5.08
2022-11-28T11:16:10.669Z,5.22
2022-11-28T11:18:52.529Z,5.35
2022-11-28T11:21:25.920Z,5.43
2022-11-28T11:24:31.625Z,5.36
2022-11-28T11:27:14.108Z,5.35
2022-11-28T11:29:41.638Z,5.40
2022-11-28T11:32:22.062Z,5.56
2022-11-28T11:34:49.674Z,5.61
2022-11-28T11:37:38.740Z,5.48
2022-11-28T11:40:29.302Z,5.54
2022-11-28T11:42:59.620Z,5.52
2022-11-28T11:45:30.285Z,5.50
2022-11-28T11:47:58.231Z,5.57
2022-11-28T11:50:28.622Z,5.38
2022-11-28T11:53:02.403Z,5.54
2022-11-28T11:55:32.028Z,5.57
2022-11-28T11:58:05.682Z,5.60
2022-11-28T12:00:40.693Z,5.76
2022-11-28T12:03:39.426Z,5.81
2022-11-28T12:06:33.284Z,5.90
2022-11-28T12:09:08.455Z,5.88
2022-11-28T12:11:46.539Z,6.00
2022-11-28T12:14:34.510Z,5.96
2022-11-28T12:17:48.823Z,5.81
2022-11-28T12:20:34.801Z,5.92
2022-11-28T12:23:23.515Z,6.00
2022-11-28T12:26:09.189Z,5.97
2022-11-28T12:29:00.408Z,5.77
2022-11-28T12:32:01.106Z,5.62
2022-11-28T12:34:49.807Z,5.62
2022-11-28T12:41:12.527Z,5.57
2022-11-28T12:43:40.101Z,5.64
2022-11-28T12:46:23.052Z,5.74
2022-11-28T12:49:03.693Z,5.65
2022-11-28T12:51:55.113Z,5.61
2022-11-28T12:55:01.142Z,5.49
2022-11-28T12:57:30.949Z,5.61
2022-11-28T13:00:08.724Z,5.54
2022-11-28T13:02:50.362Z,5.37
2022-11-28T13:05:44.550Z,5.23
2022-11-28T13:08:49.355Z,5.14
2022-11-28T13:11:19.160Z,5.17
2022-11-28T13:13:56.607Z,5.10
2022-11-28T13:16:45.858Z,5.13
2022-11-28T13:19:15.630Z,5.17
2022-11-28T13:21:51.336Z,5.14
2022-11-28T13:24:39.388Z,5.18
2022-11-28T13:27:22.359Z,5.20
2022-11-28T13:30:28.950Z,5.15
2022-11-28T13:33:07.427Z,5.06
2022-11-28T13:35:35.499Z,5.01
2022-11-28T13:38:44.131Z,5.00
2022-11-28T13:41:52.835Z,4.88
2022-11-28T13:44:23.348Z,4.83
2022-11-28T13:46:51.508Z,4.77
2022-11-28T13:49:29.791Z,4.75
2022-11-28T13:52:18.540Z,4.62
2022-11-28T13:54:52.714Z,4.62
2022-11-28T13:57:22.605Z,4.63
2022-11-28T13:59:54.336Z,4.62
2022-11-28T14:02:27.953Z,4.55
2022-11-28T14:04:55.012Z,4.58
2022-11-28T14:07:29.283Z,4.48
2022-11-28T14:10:30.261Z,4.43
2022-11-28T14:13:03.450Z,4.31
2022-11-28T14:15:52.276Z,4.13
2022-11-28T14:19:00.522Z,4.02
2022-11-28T14:21:43.173Z,4.03
2022-11-28T14:24:25.760Z,3.84
2022-11-28T14:27:02.492Z,3.81
2022-11-28T14:29:37.219Z,3.71
2022-11-28T14:34:52.444Z,3.55
2022-11-28T14:37:22.374Z,3.41
2022-11-28T14:39:50.681Z,3.24
2022-11-28T14:42:37.236Z,3.22
2022-11-28T14:45:33.355Z,3.13
2022-11-28T14:48:22.077Z,3.02
2022-11-28T14:51:00.645Z,2.95
2022-11-28T14:53:34.644Z,2.87
2022-11-28T14:56:14.942Z,2.81
2022-11-28T14:58:49.679Z,2.74
2022-11-28T15:01:29.131Z,2.67
2022-11-28T15:04:04.629Z,2.61
2022-11-28T15:06:36.336Z,2.51
2022-11-28T15:09:14.680Z,2.48
2022-11-28T15:12:01.640Z,2.39
2022-11-28T15:14:32.210Z,2.36
2022-11-28T15:17:10.920Z,2.28
2022-11-28T15:19:49.606Z,2.17
2022-11-28T15:22:38.815Z,2.09
2022-11-28T15:25:18.817Z,2.11
2022-11-28T15:27:45.834Z,2.07
2022-11-28T15:30:26.905Z,2.08
2022-11-28T15:32:59.534Z,1.96
2022-11-28T15:35:28.039Z,1.95
2022-11-28T15:37:58.273Z,1.83
2022-11-28T15:40:32.837Z,1.87
2022-11-28T15:43:01.363Z,1.84
2022-11-28T15:45:35.917Z,1.70
2022-11-28T15:48:04.874Z,1.70
2022-11-28T15:50:34.167Z,1.61
2022-11-28T15:53:14.734Z,1.53
2022-11-28T15:55:41.759Z,1.56
2022-11-28T15:58:25.697Z,1.46
2022-11-28T16:01:17.336Z,1.45
2022-11-28T16:04:02.333Z,1.43
2022-11-28T16:06:34.290Z,1.41
2022-11-28T16:09:24.554Z,1.32
2022-11-28T16:11:54.080Z,1.31
2022-11-28T16:14:38.095Z,1.27
2022-11-28T16:17:29.881Z,1.20
2022-11-28T16:19:57.668Z,1.20
2022-11-28T16:22:32.821Z,1.17
2022-11-28T16:25:24.790Z,1.16
2022-11-28T16:27:57.570Z,1.06
2022-11-28T16:30:41.652Z,1.05
2022-11-28T16:33:40.963Z,0.97
2022-11-28T16:36:16.944Z,0.95
2022-11-28T16:38:45.385Z,0.88
2022-11-28T16:41:24.230Z,0.73
2022-11-28T16:44:05.219Z,0.81
2022-11-28T16:46:37.562Z,0.71
2022-11-28T16:49:07.364Z,0.64
2022-11-28T16:51:39.834Z,0.65
2022-11-28T16:54:30.380Z,0.66
2022-11-28T16:57:09.106Z,0.64
2022-11-28T16:59:36.536Z,0.64
2022-11-28T17:02:04.309Z,0.60
2022-11-28T17:04:31.612Z,0.58
2022-11-28T17:07:05.355Z,0.51
2022-11-28T17:09:34.104Z,0.35
2022-11-28T17:12:07.704Z,0.41
2022-11-28T17:14:35.278Z,0.34
2022-11-28T17:17:02.126Z,0.29
2022-11-28T17:19:29.333Z,0.20
2022-11-28T17:21:59.478Z,0.13
2022-11-28T17:24:29.688Z,0.13
2022-11-28T17:26:56.573Z,0.03
2022-11-28T17:29:25.485Z,-0.01
2022-11-28T17:31:55.384Z,-0.14
2022-11-28T17:34:27.832Z,-0.11
2022-11-28T17:36:54.713Z,-0.14
2022-11-28T17:39:21.678Z,-0.24
2022-11-28T17:41:49.459Z,-0.30
2022-11-28T17:44:28.289Z,-0.42
2022-11-28T17:46:56.826Z,-0.48
2022-11-28T17:49:24.430Z,-0.57
2022-11-28T17:51:52.840Z,-0.55
2022-11-28T17:54:22.284Z,-0.62
2022-11-28T17:56:50.778Z,-0.64
2022-11-28T17:59:19.962Z,-0.73
2022-11-28T18:01:47.673Z,-0.79
2022-11-28T18:04:14.768Z,-0.86
2022-11-28T18:06:46.223Z,-0.86
2022-11-28T18:09:14.180Z,-0.88
2022-11-28T18:11:42.426Z,-0.88
2022-11-28T18:14:09.884Z,-0.87
2022-11-28T18:16:37.179Z,-0.92
2022-11-28T18:19:04.856Z,-1.00
2022-11-28T18:21:32.642Z,-0.95
2022-11-28T18:23:59.575Z,-1.06
2022-11-28T18:26:27.261Z,-1.08
2022-11-28T18:28:55.004Z,-1.13
2022-11-28T18:31:25.281Z,-1.12
2022-11-28T18:33:55.184Z,-1.18
2022-11-28T18:36:27.350Z,-1.19
2022-11-28T18:38:57.176Z,-1.28
2022-11-28T18:41:24.678Z,-1.29
2022-11-28T18:44:03.656Z,-1.30
2022-11-28T18:46:31.693Z,-1.29
2022-11-28T18:48:58.934Z,-1.31
2022-11-28T18:51:28.541Z,-1.37
2022-11-28T18:53:56.683Z,-1.42
2022-11-28T18:56:25.029Z,-1.35
2022-11-28T18:58:54.129Z,-1.28
2022-11-28T19:01:29.268Z,-1.27
2022-11-28T19:03:59.344Z,-1.37
2022-11-28T19:06:26.707Z,-1.38
2022-11-28T19:08:56.157Z,-1.58
2022-11-28T19:11:23.817Z,-1.49
2022-11-28T19:13:53.917Z,-1.60
2022-11-28T19:16:26.657Z,-1.60
2022-11-28T19:18:53.999Z,-1.58
2022-11-28T19:21:23.592Z,-1.56
2022-11-28T19:23:52.603Z,-1.61
2022-11-28T19:26:22.283Z,-1.56
2022-11-28T19:28:50.019Z,-1.54
2022-11-28T19:31:29.489Z,-1.57
2022-11-28T19:34:07.262Z,-1.56
2022-11-28T19:36:41.115Z,-1.57
2022-11-28T19:39:09.854Z,-1.69
2022-11-28T19:41:36.731Z,-1.69
2022-11-28T19:44:03.718Z,-1.74
2022-11-28T19:46:35.402Z,-1.90
2022-11-28T19:49:02.842Z,-1.81
2022-11-28T19:51:29.746Z,-1.82
2022-11-28T19:54:02.705Z,-1.81
2022-11-28T19:56:31.543Z,-1.85
2022-11-28T19:58:59.181Z,-1.95
2022-11-28T20:01:28.332Z,-1.95
2022-11-28T20:03:55.351Z,-2.04
2022-11-28T20:06:25.515Z,-2.01
2022-11-28T20:08:54.386Z,-2.18
2022-11-28T20:11:27.446Z,-2.33
2022-11-28T20:14:00.354Z,-2.24
2022-11-28T20:16:29.923Z,-2.07
2022-11-28T20:18:57.302Z,-2.03
2022-11-28T20:21:24.280Z,-2.01
2022-11-28T20:23:53.951Z,-2.02
2022-11-28T20:26:24.169Z,-2.09
2022-11-28T20:28:51.062Z,-2.16
2022-11-28T20:31:22.409Z,-2.15
2022-11-28T20:33:51.928Z,-2.21
2022-11-28T20:36:21.183Z,-2.13
2022-11-28T20:38:49.373Z,-2.61
2022-11-28T20:41:18.967Z,-2.22
2022-11-28T20:43:46.559Z,-2.37
2022-11-28T20:46:28.801Z,-2.23
2022-11-28T20:48:58.887Z,-2.28
2022-11-28T20:51:27.938Z,-2.23
2022-11-28T20:53:56.907Z,-2.21
2022-11-28T20:56:26.877Z,-2.18
2022-11-28T20:58:53.776Z,-2.21
2022-11-28T21:01:24.189Z,-2.32
2022-11-28T21:03:51.697Z,-2.41
2022-11-28T21:06:20.334Z,-2.40
2022-11-28T21:08:47.617Z,-2.43
2022-11-28T21:11:30.954Z,-2.43
2022-11-28T21:14:05.895Z,-2.49
2022-11-28T21:16:34.474Z,-2.50
2022-11-28T21:19:09.129Z,-2.53
2022-11-28T21:21:38.577Z,-2.47
2022-11-28T21:24:08.611Z,-2.44
2022-11-28T21:26:40.864Z,-2.47
2022-11-28T21:29:11.519Z,-2.57
2022-11-28T21:31:42.668Z,-2.60
2022-11-28T21:34:17.879Z,-2.65
2022-11-28T21:36:45.515Z,-2.71
2022-11-28T21:39:18.919Z,-2.66
2022-11-28T21:41:46.478Z,-2.58
2022-11-28T21:44:13.481Z,-2.57
2022-11-28T21:46:40.497Z,-2.52
2022-11-28T21:49:07.557Z,-2.48
2022-11-28T21:51:34.460Z,-2.52
2022-11-28T21:54:02.336Z,-2.40
2022-11-28T21:56:29.253Z,-2.38
2022-11-28T21:58:56.284Z,-2.39
2022-11-28T22:01:23.317Z,-2.55
2022-11-28T22:03:50.339Z,-2.52
2022-11-28T22:06:22.918Z,-2.60
2022-11-28T22:08:51.649Z,-2.66
2022-11-28T22:11:20.475Z,-3.09
2022-11-28T22:13:49.225Z,-2.73
2022-11-28T22:16:27.699Z,-2.79
2022-11-28T22:18:57.898Z,-2.77
2022-11-28T22:24:12.501Z,-2.79
2022-11-28T22:26:39.930Z,-2.81
2022-11-28T22:29:07.046Z,-2.84
2022-11-28T22:31:34.123Z,-2.83
2022-11-28T22:34:01.132Z,-2.89
2022-11-28T22:36:28.088Z,-2.96
2022-11-28T22:38:57.268Z,-3.03
2022-11-28T22:41:28.936Z,-2.96
2022-11-28T22:44:00.574Z,-2.92
2022-11-28T22:46:28.199Z,-2.88
2022-11-28T22:48:55.392Z,-2.88
2022-11-28T22:51:25.706Z,-2.87
2022-11-28T22:53:57.907Z,-2.88
2022-11-28T22:56:25.515Z,-2.98
2022-11-28T22:58:53.054Z,-2.86
2022-11-28T23:01:24.313Z,-2.86
2022-11-28T23:03:52.210Z,-2.86
2022-11-28T23:06:21.650Z,-2.90
2022-11-28T23:08:49.423Z,-2.78
2022-11-28T23:11:23.018Z,-2.79
2022-11-28T23:13:50.963Z,-2.77
2022-11-28T23:16:45.333Z,-3.14
2022-11-28T23:19:15.405Z,-2.82
2022-11-28T23:21:44.617Z,-2.77
2022-11-28T23:24:17.977Z,-2.76
2022-11-28T23:26:45.116Z,-2.83
2022-11-28T23:29:12.075Z,-2.96
2022-11-28T23:31:42.033Z,-3.20
2022-11-28T23:34:10.306Z,-3.29
2022-11-28T23:36:42.502Z,-3.30
2022-11-28T23:39:15.994Z,-3.35
2022-11-28T23:41:43.048Z,-3.38
2022-11-28T23:44:14.301Z,-3.45
2022-11-28T23:46:41.455Z,-3.52
2022-11-28T23:49:09.199Z,-3.44
2022-11-28T23:51:36.233Z,-3.35
2022-11-28T23:54:03.192Z,-3.34
2022-11-28T23:56:33.078Z,-3.23
2022-11-28T23:59:02.077Z,-3.22
